createdAt,value
2024-05-09T00:01:54.976Z,11.97
2024-05-09T00:06:58.075Z,11.90
2024-05-09T00:12:01.197Z,11.83
2024-05-09T00:17:04.328Z,11.76
2024-05-09T00:22:07.568Z,11.70
2024-05-09T00:27:12.670Z,11.64
2024-05-09T00:32:16.240Z,11.54
2024-05-09T00:37:19.419Z,11.48
2024-05-09T00:42:22.380Z,11.39
2024-05-09T00:47:25.631Z,11.30
2024-05-09T00:52:29.964Z,11.21
2024-05-09T00:57:33.083Z,11.10
2024-05-09T01:02:36.199Z,10.97
2024-05-09T01:07:42.562Z,10.89
2024-05-09T01:12:45.673Z,10.80
2024-05-09T01:17:48.986Z,10.72
2024-05-09T01:22:54.096Z,10.59
2024-05-09T01:27:57.109Z,10.46
2024-05-09T01:33:00.231Z,10.35
2024-05-09T01:38:03.657Z,10.27
2024-05-09T01:43:08.692Z,10.20
2024-05-09T01:48:12.865Z,10.07
2024-05-09T01:53:16.044Z,9.97
2024-05-09T01:58:19.285Z,9.84
2024-05-09T02:03:22.491Z,9.70
2024-05-09T02:08:25.700Z,9.66
2024-05-09T02:13:28.791Z,9.64
2024-05-09T02:18:31.849Z,9.59
2024-05-09T02:23:35.112Z,9.53
2024-05-09T02:28:38.051Z,9.49
2024-05-09T02:33:41.256Z,9.49
2024-05-09T02:38:44.497Z,9.47
2024-05-09T02:43:47.649Z,9.42
2024-05-09T02:48:50.908Z,9.32
2024-05-09T02:53:54.299Z,9.25
2024-05-09T02:58:57.266Z,9.19
2024-05-09T03:04:00.266Z,9.14
2024-05-09T03:09:04.841Z,9.05
2024-05-09T03:14:08.003Z,9.00
2024-05-09T03:19:11.126Z,8.94
2024-05-09T03:24:14.323Z,8.92
2024-05-09T03:29:17.519Z,8.92
2024-05-09T03:34:20.716Z,8.93
2024-05-09T03:39:24.818Z,8.96
2024-05-09T03:44:28.191Z,8.97
2024-05-09T03:49:31.394Z,9.05
2024-05-09T03:54:35.138Z,9.09
2024-05-09T03:59:38.205Z,9.12
2024-05-09T04:04:44.749Z,9.19
2024-05-09T04:09:47.931Z,9.26
2024-05-09T04:14:51.062Z,9.37
2024-05-09T04:19:54.271Z,9.48
2024-05-09T04:24:57.377Z,9.61
2024-05-09T04:30:00.525Z,9.81
2024-05-09T04:35:04.390Z,10.03
2024-05-09T04:40:14.162Z,10.25
2024-05-09T04:45:23.673Z,10.38
2024-05-09T04:50:35.437Z,10.51
2024-05-09T04:55:41.453Z,10.63
2024-05-09T05:00:44.574Z,10.77
2024-05-09T05:05:47.739Z,10.97
2024-05-09T05:10:53.865Z,11.12
2024-05-09T05:15:58.223Z,11.38
2024-05-09T05:21:02.016Z,11.92
2024-05-09T05:26:05.243Z,12.48
2024-05-09T05:31:08.643Z,12.84
2024-05-09T05:36:11.956Z,13.19
2024-05-09T05:41:15.034Z,13.34
2024-05-09T05:46:19.043Z,13.41
2024-05-09T05:51:22.103Z,13.45
2024-05-09T05:56:26.409Z,13.66
2024-05-09T06:01:30.914Z,14.08
2024-05-09T06:06:34.014Z,14.58
2024-05-09T06:11:40.162Z,14.83
2024-05-09T06:16:43.414Z,14.80
2024-05-09T06:21:46.375Z,14.76
2024-05-09T06:26:49.394Z,14.73
2024-05-09T06:31:52.501Z,14.82
2024-05-09T06:36:55.343Z,14.90
2024-05-09T06:41:58.419Z,14.91
2024-05-09T06:47:01.641Z,14.95
2024-05-09T06:52:05.022Z,14.93
2024-05-09T06:57:08.002Z,14.83
2024-05-09T07:02:10.967Z,14.87
2024-05-09T07:07:14.063Z,14.87
2024-05-09T07:12:18.517Z,14.88
2024-05-09T07:17:21.703Z,15.02
2024-05-09T07:22:25.495Z,15.17
2024-05-09T07:27:28.669Z,15.37
2024-05-09T07:32:32.088Z,15.53
2024-05-09T07:37:35.045Z,15.74
2024-05-09T07:42:38.215Z,15.98
2024-05-09T07:49:11.988Z,16.14
2024-05-09T07:53:36.215Z,16.40
2024-05-09T07:58:27.702Z,16.51
2024-05-09T08:03:31.511Z,16.74
2024-05-09T08:08:34.623Z,16.93
2024-05-09T08:13:37.654Z,17.00
2024-05-09T08:18:41.665Z,17.03
2024-05-09T08:23:44.706Z,17.05
2024-05-09T08:28:47.775Z,17.12
2024-05-09T08:33:55.231Z,17.23
2024-05-09T08:38:58.468Z,17.32
2024-05-09T08:44:02.049Z,17.46
2024-05-09T08:49:05.376Z,17.56
2024-05-09T08:54:08.742Z,17.62
2024-05-09T08:59:23.753Z,17.61
2024-05-09T09:04:28.298Z,17.60
2024-05-09T09:09:35.097Z,17.63
2024-05-09T09:14:38.172Z,17.70
2024-05-09T09:19:43.204Z,17.86
2024-05-09T09:24:46.153Z,17.97
2024-05-09T09:29:49.231Z,18.03
2024-05-09T09:34:52.306Z,18.14
2024-05-09T09:39:56.014Z,18.19
2024-05-09T09:45:04.707Z,18.21
2024-05-09T09:50:14.427Z,18.22
2024-05-09T09:55:22.472Z,18.29
2024-05-09T10:00:32.502Z,18.38
2024-05-09T10:05:37.415Z,18.41
2024-05-09T10:10:47.124Z,18.45
2024-05-09T10:15:54.385Z,18.43
2024-05-09T10:20:59.302Z,18.41
2024-05-09T10:26:05.219Z,18.51
2024-05-09T10:31:10.794Z,18.54
2024-05-09T10:36:18.423Z,18.50
2024-05-09T10:41:23.200Z,18.39
2024-05-09T10:46:26.572Z,18.36
2024-05-09T10:51:30.059Z,18.44
2024-05-09T10:56:33.183Z,18.51
2024-05-09T11:01:36.573Z,18.60
2024-05-09T11:06:40.213Z,18.70
2024-05-09T11:11:43.285Z,18.75
2024-05-09T11:16:46.404Z,18.81
2024-05-09T11:21:52.699Z,18.85
2024-05-09T11:26:58.037Z,18.94
2024-05-09T11:32:01.296Z,19.07
2024-05-09T11:37:04.765Z,19.23
2024-05-09T11:42:08.678Z,19.29
2024-05-09T11:47:11.713Z,19.31
2024-05-09T11:52:14.634Z,19.24
2024-05-09T11:57:17.716Z,19.11
2024-05-09T12:02:20.883Z,19.21
2024-05-09T12:07:24.277Z,19.34
2024-05-09T12:12:28.400Z,19.46
2024-05-09T12:17:31.595Z,19.37
2024-05-09T12:22:34.705Z,19.41
2024-05-09T12:27:38.899Z,19.50
2024-05-09T12:32:42.158Z,19.64
2024-05-09T12:37:45.297Z,19.62
2024-05-09T12:42:49.576Z,19.57
2024-05-09T12:47:52.839Z,19.67
2024-05-09T12:52:56.002Z,19.58
2024-05-09T12:57:59.574Z,19.55
2024-05-09T13:03:02.879Z,19.55
2024-05-09T13:08:07.173Z,19.53
2024-05-09T13:13:10.899Z,19.57
2024-05-09T13:18:14.178Z,19.57
2024-05-09T13:23:17.361Z,19.63
2024-05-09T13:28:21.315Z,19.69
2024-05-09T13:33:24.464Z,19.76
2024-05-09T13:38:27.569Z,19.84
2024-05-09T13:43:30.621Z,19.92
2024-05-09T13:48:34.565Z,19.95
2024-05-09T13:53:37.864Z,19.93
2024-05-09T13:58:42.086Z,19.93
2024-05-09T14:03:45.379Z,19.94
2024-05-09T14:08:48.571Z,19.94
2024-05-09T14:13:51.440Z,19.93
2024-05-09T14:18:54.409Z,19.93
2024-05-09T14:23:57.636Z,19.94
2024-05-09T14:29:00.728Z,19.99
2024-05-09T14:34:04.005Z,20.01
2024-05-09T14:39:07.349Z,20.03
2024-05-09T14:44:12.480Z,19.97
2024-05-09T14:49:15.560Z,19.96
2024-05-09T14:54:18.584Z,20.03
2024-05-09T14:59:21.536Z,20.03
2024-05-09T15:04:24.702Z,19.99
2024-05-09T15:09:35.550Z,20.04
2024-05-09T15:14:38.605Z,20.12
2024-05-09T15:19:41.617Z,20.18
2024-05-09T15:24:46.266Z,20.12
2024-05-09T15:29:49.251Z,20.08
2024-05-09T15:34:52.213Z,20.08
2024-05-09T15:39:55.156Z,20.14
2024-05-09T15:44:58.184Z,20.12
2024-05-09T15:50:01.191Z,20.12
2024-05-09T15:55:05.113Z,20.08
2024-05-09T16:00:15.236Z,20.08
2024-05-09T16:05:24.972Z,20.10
2024-05-09T16:10:32.705Z,20.12
2024-05-09T16:15:37.197Z,20.11
2024-05-09T16:20:42.333Z,20.09
2024-05-09T16:25:47.788Z,20.07
2024-05-09T16:30:51.586Z,20.07
2024-05-09T16:35:54.546Z,19.99
2024-05-09T16:40:57.507Z,19.93
2024-05-09T16:46:01.297Z,19.88
2024-05-09T16:51:04.268Z,19.86
2024-05-09T16:56:07.576Z,19.85
2024-05-09T17:01:13.376Z,19.80
2024-05-09T17:06:16.440Z,19.72
2024-05-09T17:11:19.450Z,19.68
2024-05-09T17:16:22.814Z,19.61
2024-05-09T17:21:26.145Z,19.52
2024-05-09T17:26:30.915Z,19.36
2024-05-09T17:31:34.053Z,19.24
2024-05-09T17:36:37.243Z,19.14
2024-05-09T17:41:40.425Z,19.01
2024-05-09T17:46:43.722Z,18.88
2024-05-09T17:51:54.317Z,18.75
2024-05-09T17:56:58.451Z,18.62
2024-05-09T18:02:01.769Z,18.47
2024-05-09T18:07:05.661Z,18.32
2024-05-09T18:12:08.841Z,18.17
2024-05-09T18:17:13.357Z,18.01
2024-05-09T18:22:16.455Z,17.82
2024-05-09T18:27:19.734Z,17.63
2024-05-09T18:32:22.848Z,17.45
2024-05-09T18:37:26.664Z,17.25
2024-05-09T18:42:29.657Z,17.01
2024-05-09T18:47:33.873Z,16.79
2024-05-09T18:52:36.899Z,16.57
2024-05-09T18:57:39.897Z,16.42
2024-05-09T19:02:43.039Z,16.24
2024-05-09T19:07:46.432Z,16.05
2024-05-09T19:12:49.584Z,15.82
2024-05-09T19:17:52.852Z,15.58
2024-05-09T19:22:56.258Z,15.42
2024-05-09T19:28:08.852Z,15.26
2024-05-09T19:33:21.047Z,15.15
2024-05-09T19:38:24.172Z,14.99
2024-05-09T19:43:27.649Z,14.80
2024-05-09T19:48:30.652Z,14.70
2024-05-09T19:53:33.759Z,14.59
2024-05-09T19:58:36.913Z,14.48
2024-05-09T20:03:40.063Z,14.39
2024-05-09T20:08:43.749Z,14.31
2024-05-09T20:13:46.696Z,14.22
2024-05-09T20:18:49.948Z,14.03
2024-05-09T20:23:54.263Z,13.96
2024-05-09T20:28:57.303Z,13.82
2024-05-09T20:34:00.317Z,13.60
2024-05-09T20:39:03.476Z,13.42
2024-05-09T20:44:37.785Z,13.49
2024-05-09T20:49:47.131Z,13.48
2024-05-09T20:54:50.218Z,13.19
2024-05-09T20:59:53.143Z,13.02
2024-05-09T21:04:56.242Z,12.92
2024-05-09T21:09:59.339Z,12.81
2024-05-09T21:15:02.352Z,12.74
2024-05-09T21:20:11.420Z,12.70
2024-05-09T21:25:17.631Z,12.72
2024-05-09T21:30:31.652Z,12.63
2024-05-09T21:35:44.541Z,12.58
2024-05-09T21:40:48.540Z,12.43
2024-05-09T21:45:51.697Z,12.32
2024-05-09T21:50:54.720Z,12.25
2024-05-09T21:55:57.693Z,12.14
2024-05-09T22:01:00.771Z,12.03
2024-05-09T22:06:03.895Z,12.01
2024-05-09T22:11:07.081Z,11.94
2024-05-09T22:16:10.130Z,11.87
2024-05-09T22:21:13.115Z,11.90
2024-05-09T22:26:16.365Z,11.80
2024-05-09T22:31:19.449Z,11.69
2024-05-09T22:36:22.540Z,11.51
2024-05-09T22:41:28.358Z,11.36
2024-05-09T22:46:31.637Z,11.27
2024-05-09T22:51:37.692Z,11.23
2024-05-09T22:56:40.720Z,11.13
2024-05-09T23:01:43.825Z,11.08
2024-05-09T23:06:47.197Z,11.06
2024-05-09T23:11:50.269Z,11.02
2024-05-09T23:16:53.307Z,10.97
2024-05-09T23:21:56.451Z,10.99
2024-05-09T23:26:59.458Z,10.93
2024-05-09T23:32:04.260Z,10.86
2024-05-09T23:37:07.282Z,10.79
2024-05-09T23:42:10.334Z,10.77
2024-05-09T23:47:13.508Z,10.62
2024-05-09T23:52:16.702Z,10.52
2024-05-09T23:57:19.956Z,10.39
